Time;durP1;ratioP1;P1;durP2;ratioP2;P2;SDS_P1;SDS_P2;PMS_P1;PMS_P2;Temp;Humidity;BMP_temperature;BMP_pressure;BME280_temperature;BME280_humidity;BME280_pressure;Samples;Min_cycle;Max_cycle;Signal;HPM_P1;HPM_P2
2023/01/16 00:00:11;;;;;;;;;35.75;31.00;24.60;46.20;;;;;;112209;1244;45391;-68
2023/01/16 00:02:58;;;;;;;;;29.00;28.00;24.60;46.20;;;;;;112188;1244;58199;-68
2023/01/16 00:05:25;;;;;;;;;29.00;28.00;24.60;46.40;;;;;;112202;1247;55365;-68
2023/01/16 00:07:52;;;;;;;;;33.00;27.00;24.60;46.20;;;;;;112173;1245;49776;-68
2023/01/16 00:10:18;;;;;;;;;32.50;27.75;24.60;46.30;;;;;;112171;1249;48907;-69
2023/01/16 00:12:49;;;;;;;;;33.67;28.67;24.50;46.30;;;;;;112197;1244;46363;-68
2023/01/16 00:15:16;;;;;;;;;36.00;31.00;24.50;46.30;;;;;;112312;1247;56496;-67
2023/01/16 00:17:43;;;;;;;;;34.67;28.67;24.50;46.30;;;;;;112290;1244;55944;-68
2023/01/16 00:20:10;;;;;;;;;31.67;26.00;24.50;46.20;;;;;;112299;1247;49153;-68
2023/01/16 00:22:37;;;;;;;;;29.67;27.00;24.50;46.10;;;;;;111667;1247;811426;-67
2023/01/16 00:25:04;;;;;;;;;30.00;26.67;24.40;46.00;;;;;;112210;1245;45366;-67
2023/01/16 00:27:31;;;;;;;;;35.50;29.50;24.40;45.90;;;;;;112170;1244;56014;-67
2023/01/16 00:29:58;;;;;;;;;33.75;29.00;24.40;46.10;;;;;;112232;1248;56185;-66
2023/01/16 00:32:25;;;;;;;;;32.25;27.75;24.40;45.80;;;;;;112199;1248;48941;-68
2023/01/16 00:34:52;;;;;;;;;32.33;28.67;24.40;46.00;;;;;;112173;1244;49924;-67
2023/01/16 00:37:19;;;;;;;;;33.50;29.25;24.40;45.80;;;;;;112183;1249;45278;-67
2023/01/16 00:39:45;;;;;;;;;33.00;29.50;24.40;45.80;;;;;;112108;1249;56469;-68
2023/01/16 00:42:12;;;;;;;;;27.50;24.00;24.40;45.70;;;;;;112184;1248;55703;-67
2023/01/16 00:44:39;;;;;;;;;30.00;28.00;24.30;45.60;;;;;;112114;1249;49562;-69
2023/01/16 00:47:06;;;;;;;;;30.25;28.75;24.30;46.10;;;;;;112186;1249;49113;-67
2023/01/16 00:49:33;;;;;;;;;31.00;28.33;24.40;45.70;;;;;;112196;1248;46620;-67
2023/01/16 00:52:00;;;;;;;;;30.00;26.00;24.40;45.60;;;;;;112198;1248;55979;-68
2023/01/16 00:54:27;;;;;;;;;30.00;27.75;24.30;45.50;;;;;;112203;1248;55212;-68
2023/01/16 00:56:54;;;;;;;;;31.75;28.50;24.30;45.50;;;;;;112163;1248;49754;-68
2023/01/16 00:59:21;;;;;;;;;31.67;29.00;24.30;45.50;;;;;;112172;1248;49144;-68
2023/01/16 01:01:47;;;;;;;;;28.50;25.25;24.30;45.40;;;;;;112187;1248;45229;-68
2023/01/16 01:04:14;;;;;;;;;32.00;27.00;24.30;45.40;;;;;;112199;1249;56735;-68
2023/01/16 01:06:41;;;;;;;;;30.67;26.00;24.20;45.30;;;;;;112180;1248;55659;-68
2023/01/16 01:09:08;;;;;;;;;32.00;29.00;24.20;45.30;;;;;;112203;1249;49491;-68
2023/01/16 01:11:35;;;;;;;;;29.00;27.75;24.20;45.30;;;;;;112179;1244;49662;-68
2023/01/16 01:14:03;;;;;;;;;29.67;28.00;24.20;45.30;;;;;;112179;1244;46858;-68
2023/01/16 01:16:29;;;;;;;;;27.75;26.00;24.30;45.40;;;;;;112173;1248;56131;-68
2023/01/16 01:18:56;;;;;;;;;27.75;25.25;24.20;45.30;;;;;;112153;1244;55407;-68
2023/01/16 01:21:23;;;;;;;;;28.00;26.67;24.30;45.50;;;;;;112197;1244;48988;-68
2023/01/16 01:23:50;;;;;;;;;29.50;27.50;24.30;45.50;;;;;;112200;1249;49988;-68
2023/01/16 01:26:17;;;;;;;;;25.50;22.75;24.30;45.50;;;;;;112207;1248;45485;-68
2023/01/16 01:28:44;;;;;;;;;28.33;27.00;24.40;45.50;;;;;;112220;1248;55680;-68
2023/01/16 01:31:13;;;;;;;;;27.00;24.33;24.40;45.50;;;;;;112209;1248;55876;-67
2023/01/16 01:33:40;;;;;;;;;30.00;26.00;24.50;45.60;;;;;;112189;1248;50433;-68
2023/01/16 01:36:08;;;;;;;;;28.75;27.00;24.50;45.60;;;;;;112204;1249;49459;-67
2023/01/16 01:38:35;;;;;;;;;25.00;23.50;24.60;45.30;;;;;;112245;1244;45923;-67
2023/01/16 01:41:02;;;;;;;;;27.50;25.50;24.60;45.50;;;;;;112142;1245;56142;-67
2023/01/16 01:43:50;;;;;;;;;27.50;24.00;24.60;45.70;;;;;;112235;1248;55263;-68
2023/01/16 01:46:19;;;;;;;;;32.75;27.75;24.70;45.50;;;;;;112217;1248;49838;-68
2023/01/16 01:48:48;;;;;;;;;26.25;23.00;24.70;45.40;;;;;;112122;1250;49916;-68
2023/01/16 01:51:23;;;;;;;;;27.00;23.67;24.70;45.30;;;;;;112203;1244;46359;-67
2023/01/16 01:53:55;;;;;;;;;23.67;22.00;24.80;45.30;;;;;;112212;1249;56169;-68
2023/01/16 01:56:30;;;;;;;;;27.33;25.33;24.80;45.30;;;;;;112210;1247;55889;-68
2023/01/16 01:59:00;;;;;;;;;25.25;22.75;24.80;45.20;;;;;;112225;1248;50566;-68
2023/01/16 02:01:29;;;;;;;;;28.00;26.33;24.80;45.20;;;;;;112230;1244;49078;-68
2023/01/16 02:04:10;;;;;;;;;30.25;27.00;24.80;45.20;;;;;;112247;1248;45248;-68
2023/01/16 02:06:49;;;;;;;;;30.00;24.00;24.80;45.10;;;;;;112204;1244;56187;-69
2023/01/16 02:09:17;;;;;;;;;27.00;25.67;24.80;45.10;;;;;;112139;1249;56052;-67
2023/01/16 02:11:56;;;;;;;;;26.00;23.67;24.80;45.00;;;;;;112240;1247;49609;-68
2023/01/16 02:14:25;;;;;;;;;24.67;22.33;24.80;45.00;;;;;;112195;1248;49076;-68
2023/01/16 02:20:00;;;;;;;;;25.50;20.50;24.80;45.00;;;;;;112220;1247;56015;-68
2023/01/16 02:22:46;;;;;;;;;31.33;29.33;24.70;44.90;;;;;;112305;1247;55905;-68
2023/01/16 02:25:40;;;;;;;;;31.00;29.25;24.70;44.80;;;;;;112297;1247;49196;-68
2023/01/16 02:28:49;;;;;;;;;32.25;29.25;24.70;44.80;;;;;;112285;1247;49195;-68
2023/01/16 02:31:22;;;;;;;;;37.33;28.33;24.70;44.90;;;;;;112262;1247;45547;-68
2023/01/16 02:34:24;;;;;;;;;26.00;24.50;24.70;44.80;;;;;;112278;1247;56205;-68
2023/01/16 02:36:54;;;;;;;;;30.50;29.00;24.70;44.70;;;;;;112306;1247;56058;-69
2023/01/16 02:40:05;;;;;;;;;26.75;25.50;24.70;44.70;;;;;;112292;1244;49253;-69
2023/01/16 02:42:41;;;;;;;;;32.00;29.50;24.60;44.50;;;;;;112180;1248;50319;-68
2023/01/16 02:45:29;;;;;;;;;32.00;28.25;24.60;44.50;;;;;;112311;1247;45497;-69
2023/01/16 02:48:28;;;;;;;;;30.00;28.00;24.60;44.50;;;;;;112305;1244;56559;-69
2023/01/16 02:51:10;;;;;;;;;30.75;28.25;24.60;44.50;;;;;;112291;1243;55171;-69
2023/01/16 02:53:52;;;;;;;;;32.75;29.50;24.60;44.70;;;;;;112308;1243;50084;-68
2023/01/16 02:56:27;;;;;;;;;34.00;29.33;24.60;44.50;;;;;;112284;1247;49560;-68
2023/01/16 02:58:55;;;;;;;;;30.00;28.33;24.60;44.40;;;;;;112292;1243;45106;-68
2023/01/16 03:01:21;;;;;;;;;34.75;30.00;24.60;44.40;;;;;;112331;1247;55680;-68
2023/01/16 03:03:54;;;;;;;;;34.00;28.00;24.60;44.40;;;;;;112353;1247;55650;-68
2023/01/16 03:06:27;;;;;;;;;34.33;31.00;24.50;44.50;;;;;;112332;1247;49499;-68
2023/01/16 03:09:16;;;;;;;;;32.00;28.00;24.50;44.20;;;;;;112319;1247;49107;-68
2023/01/16 03:11:51;;;;;;;;;35.67;30.33;24.50;44.30;;;;;;112307;1245;45801;-67
2023/01/16 03:14:21;;;;;;;;;34.50;30.75;24.50;44.30;;;;;;112308;1247;57063;-68
2023/01/16 03:16:51;;;;;;;;;31.50;28.75;24.40;44.20;;;;;;112364;1243;55421;-68
2023/01/16 03:19:40;;;;;;;;;30.00;28.67;24.40;44.10;;;;;;112330;1243;49720;-69
2023/01/16 03:22:19;;;;;;;;;34.00;29.75;24.40;44.40;;;;;;112364;1245;49431;-69
2023/01/16 03:25:34;;;;;;;;;36.00;31.33;24.40;44.30;;;;;;112337;1244;45652;-68
2023/01/16 03:28:31;;;;;;;;;34.00;29.00;24.40;44.10;;;;;;112342;1247;55970;-68
2023/01/16 03:31:16;;;;;;;;;35.00;30.25;24.40;44.00;;;;;;112311;1247;56329;-68
2023/01/16 03:33:46;;;;;;;;;36.50;32.00;24.40;43.90;;;;;;112312;1247;49646;-69
2023/01/16 03:36:21;;;;;;;;;31.00;28.50;24.40;43.90;;;;;;112326;1243;49885;-68
2023/01/16 03:38:50;;;;;;;;;34.75;30.75;24.40;43.90;;;;;;112202;1247;45450;-69
2023/01/16 03:41:20;;;;;;;;;33.25;30.00;24.40;43.90;;;;;;112299;1247;55998;-68
2023/01/16 03:43:51;;;;;;;;;35.33;31.67;24.40;43.90;;;;;;112138;1248;55858;-67
2023/01/16 03:46:23;;;;;;;;;33.25;29.25;24.30;43.90;;;;;;112308;1245;49288;-68
2023/01/16 03:48:57;;;;;;;;;34.33;31.00;24.30;43.90;;;;;;112285;1243;49256;-68
2023/01/16 03:51:26;;;;;;;;;28.00;26.50;24.30;44.00;;;;;;112300;1247;46360;-68
2023/01/16 03:54:00;;;;;;;;;32.67;29.67;24.30;44.00;;;;;;112330;1247;56343;-69
2023/01/16 03:56:34;;;;;;;;;30.50;27.75;24.30;44.40;;;;;;112261;1247;55553;-67
2023/01/16 03:59:01;;;;;;;;;38.00;32.50;24.40;44.40;;;;;;112089;1247;49660;-68
2023/01/16 04:01:47;;;;;;;;;34.25;28.25;24.40;44.70;;;;;;112287;1247;50019;-68
2023/01/16 04:04:32;;;;;;;;;29.33;27.00;24.50;44.50;;;;;;112286;1247;45983;-68
2023/01/16 04:07:21;;;;;;;;;28.25;26.75;24.60;44.70;;;;;;112308;1247;56309;-65
2023/01/16 04:09:53;;;;;;;;;32.50;29.00;24.60;44.70;;;;;;112274;1247;56730;-67
2023/01/16 04:12:23;;;;;;;;;34.00;29.50;24.70;44.50;;;;;;112262;1244;50785;-69
2023/01/16 04:14:58;;;;;;;;;31.25;26.50;24.70;44.50;;;;;;112268;1247;49515;-68
2023/01/16 04:17:26;;;;;;;;;28.50;27.50;24.70;44.40;;;;;;112086;1244;45023;-67
2023/01/16 04:19:53;;;;;;;;;34.00;29.50;24.80;44.40;;;;;;112091;1249;56642;-68
2023/01/16 04:22:29;;;;;;;;;33.67;30.00;24.80;44.10;;;;;;112166;1249;55615;-69
2023/01/16 04:24:59;;;;;;;;;34.50;29.50;24.80;43.70;;;;;;112188;1249;49216;-67
2023/01/16 04:27:26;;;;;;;;;41.50;33.00;24.80;43.60;;;;;;112087;1250;50488;-69
2023/01/16 04:29:53;;;;;;;;;37.00;31.00;24.80;42.90;;;;;;112175;1244;45445;-68
2023/01/16 04:32:20;;;;;;;;;41.33;34.00;24.80;42.80;;;;;;112204;1244;56395;-68
2023/01/16 04:34:47;;;;;;;;;40.33;31.67;24.80;42.70;;;;;;112136;1247;55161;-69
2023/01/16 04:37:16;;;;;;;;;35.75;31.25;24.80;42.40;;;;;;112171;1248;49388;-68
2023/01/16 04:39:43;;;;;;;;;35.00;31.50;24.80;42.30;;;;;;112180;1244;49823;-70
2023/01/16 04:42:10;;;;;;;;;37.00;32.00;24.80;42.30;;;;;;112094;1249;46450;-68
2023/01/16 04:44:37;;;;;;;;;35.00;31.33;24.80;42.20;;;;;;112179;1248;56379;-67
2023/01/16 04:47:04;;;;;;;;;40.00;32.67;24.80;42.00;;;;;;112148;1244;56163;-67
2023/01/16 04:49:31;;;;;;;;;39.50;33.75;24.70;41.80;;;;;;112157;1244;49017;-67
2023/01/16 04:51:58;;;;;;;;;38.00;33.00;24.80;41.80;;;;;;112161;1248;50076;-67
2023/01/16 04:54:25;;;;;;;;;43.50;35.50;24.80;41.60;;;;;;112173;1244;45276;-68
2023/01/16 04:56:52;;;;;;;;;40.67;33.33;24.80;41.50;;;;;;112178;1244;56067;-68
2023/01/16 04:59:19;;;;;;;;;44.00;34.00;24.80;41.40;;;;;;112175;1248;55225;-69
2023/01/16 05:01:46;;;;;;;;;38.75;32.00;24.80;41.30;;;;;;112183;1247;49478;-70
2023/01/16 05:04:15;;;;;;;;;36.00;33.00;24.80;41.40;;;;;;112084;1250;48920;-70
2023/01/16 05:06:42;;;;;;;;;43.67;35.00;24.80;41.20;;;;;;112179;1248;45440;-66
2023/01/16 05:09:09;;;;;;;;;42.50;32.25;24.80;41.10;;;;;;112166;1248;56691;-68
2023/01/16 05:11:36;;;;;;;;;38.50;32.75;24.80;41.10;;;;;;112117;1244;55363;-69
2023/01/16 05:14:07;;;;;;;;;41.00;34.00;24.80;41.30;;;;;;112164;1244;49467;-67
2023/01/16 05:16:35;;;;;;;;;35.00;30.75;24.90;42.00;;;;;;112245;1249;49150;-69
2023/01/16 05:19:03;;;;;;;;;40.50;32.25;24.90;42.20;;;;;;112301;1247;45853;-69
2023/01/16 05:21:31;;;;;;;;;31.75;29.00;24.90;42.10;;;;;;112299;1247;56142;-67
2023/01/16 05:23:58;;;;;;;;;38.33;32.00;25.00;42.30;;;;;;112292;1247;55852;-68
2023/01/16 05:26:24;;;;;;;;;38.00;32.00;25.00;42.10;;;;;;112293;1243;49222;-69
2023/01/16 05:28:52;;;;;;;;;39.25;32.00;25.10;42.10;;;;;;112301;1247;49357;-67
2023/01/16 05:31:19;;;;;;;;;40.33;32.67;25.00;42.00;;;;;;112285;1244;45530;-66
2023/01/16 05:33:46;;;;;;;;;48.25;38.75;25.10;42.20;;;;;;112291;1247;55679;-67
2023/01/16 05:36:12;;;;;;;;;49.67;36.67;25.00;42.50;;;;;;112325;1247;55663;-69
2023/01/16 05:38:39;;;;;;;;;55.67;40.33;25.00;41.70;;;;;;112313;1247;49288;-64
2023/01/16 05:41:07;;;;;;;;;53.33;41.00;25.00;41.20;;;;;;112307;1247;49728;-65
2023/01/16 05:43:33;;;;;;;;;56.00;44.00;25.00;41.80;;;;;;112203;1249;45678;-65
2023/01/16 05:46:02;;;;;;;;;52.50;41.25;24.90;41.50;;;;;;112187;1244;55867;-66
2023/01/16 05:48:32;;;;;;;;;55.00;39.00;24.90;41.60;;;;;;112290;1247;55221;-69
2023/01/16 05:51:00;;;;;;;;;50.33;37.67;24.90;41.80;;;;;;112330;1247;49259;-67
2023/01/16 05:53:29;;;;;;;;;51.00;38.00;24.90;41.70;;;;;;112291;1243;49269;-67
2023/01/16 05:55:58;;;;;;;;;52.50;39.00;24.90;41.80;;;;;;112312;1247;45654;-66
2023/01/16 05:58:25;;;;;;;;;50.33;39.67;24.90;41.90;;;;;;112311;1247;57235;-65
2023/01/16 06:00:52;;;;;;;;;52.67;42.00;24.90;41.90;;;;;;112306;1243;56345;-65
2023/01/16 06:03:20;;;;;;;;;54.50;42.25;24.90;41.70;;;;;;112298;1247;49290;-65
2023/01/16 06:05:47;;;;;;;;;53.75;41.00;24.90;41.90;;;;;;112289;1244;50347;-66
2023/01/16 06:08:14;;;;;;;;;49.75;38.25;24.90;42.00;;;;;;112293;1243;45340;-62
2023/01/16 06:10:41;;;;;;;;;47.75;38.75;24.90;44.80;;;;;;112233;1244;57068;-64
2023/01/16 06:13:08;;;;;;;;;49.00;38.00;25.00;42.10;;;;;;112220;1247;56825;-62
2023/01/16 06:15:35;;;;;;;;;49.50;38.00;25.10;42.20;;;;;;112296;1245;50178;-64
2023/01/16 06:18:02;;;;;;;;;46.50;35.00;25.00;42.30;;;;;;112260;1244;50408;-61
2023/01/16 06:20:29;;;;;;;;;46.00;34.33;25.00;42.30;;;;;;112271;1244;46276;-61
2023/01/16 06:22:56;;;;;;;;;53.75;39.00;25.00;42.40;;;;;;112219;1247;55575;-60
2023/01/16 06:25:22;;;;;;;;;49.67;39.00;25.10;42.50;;;;;;112252;1247;56234;-60
2023/01/16 06:27:51;;;;;;;;;54.00;40.00;25.00;42.60;;;;;;112234;1244;49426;-63
2023/01/16 06:30:18;;;;;;;;;43.75;35.00;25.00;42.70;;;;;;112235;1248;49769;-61
2023/01/16 06:32:52;;;;;;;;;44.00;36.33;25.10;42.80;;;;;;112259;1243;46473;-61
2023/01/16 06:35:19;;;;;;;;;46.50;35.25;25.10;42.80;;;;;;112212;1248;56900;-61
2023/01/16 06:37:46;;;;;;;;;43.33;34.33;25.10;42.70;;;;;;112238;1247;55679;-61
2023/01/16 06:40:13;;;;;;;;;47.00;36.50;25.10;43.00;;;;;;112258;1247;49566;-63
2023/01/16 06:42:40;;;;;;;;;52.25;37.00;25.10;42.90;;;;;;112239;1244;50700;-65
2023/01/16 06:45:07;;;;;;;;;48.33;36.00;25.10;42.80;;;;;;112206;1244;46857;-60
2023/01/16 06:47:34;;;;;;;;;46.33;38.33;25.10;42.80;;;;;;112376;1247;56339;-62
2023/01/16 06:50:01;;;;;;;;;46.00;37.00;25.10;42.70;;;;;;112352;1243;56904;-62
2023/01/16 06:52:28;;;;;;;;;50.00;39.00;25.20;42.50;;;;;;112271;1244;49236;-64
2023/01/16 06:54:56;;;;;;;;;51.25;41.50;25.20;41.40;;;;;;112274;1248;50512;-62
2023/01/16 06:57:23;;;;;;;;;47.33;36.00;25.10;41.40;;;;;;112261;1247;45238;-63
2023/01/16 06:59:50;;;;;;;;;43.75;34.00;25.00;41.20;;;;;;112204;1247;55758;-62
2023/01/16 07:02:17;;;;;;;;;45.50;34.00;25.00;40.70;;;;;;112217;1248;55997;-61
2023/01/16 07:04:44;;;;;;;;;45.25;35.25;24.90;41.10;;;;;;112262;1247;50310;-63
2023/01/16 07:07:11;;;;;;;;;49.67;36.00;24.90;41.00;;;;;;112238;1248;49798;-62
2023/01/16 07:09:38;;;;;;;;;47.67;36.33;24.70;40.80;;;;;;112281;1244;46091;-62
2023/01/16 07:12:05;;;;;;;;;43.75;35.25;24.70;40.80;;;;;;112230;1244;56115;-62
2023/01/16 07:22:49;;;;;;;;;42.67;34.00;24.50;41.10;;;;;;112208;1247;45245;-64
2023/01/16 07:25:21;;;;;;;;;48.00;36.00;24.50;41.30;;;;;;112149;1247;56454;-64
2023/01/16 07:27:49;;;;;;;;;43.50;34.50;24.50;41.40;;;;;;112222;1247;56056;-63
2023/01/16 07:30:18;;;;;;;;;42.50;33.75;24.50;41.50;;;;;;112231;1247;49062;-64
2023/01/16 07:32:45;;;;;;;;;46.33;33.00;24.60;41.70;;;;;;112237;1247;49187;-61
2023/01/16 07:35:12;;;;;;;;;43.00;36.00;24.60;41.70;;;;;;112256;1246;45792;-62
2023/01/16 07:37:39;;;;;;;;;44.50;35.00;24.60;41.60;;;;;;112276;1247;55710;-63
2023/01/16 07:40:07;;;;;;;;;39.25;33.00;24.70;41.70;;;;;;112238;1248;56707;-63
2023/01/16 07:42:34;;;;;;;;;38.50;31.00;24.70;41.70;;;;;;112285;1247;48923;-64
2023/01/16 07:45:01;;;;;;;;;38.00;33.00;24.80;41.90;;;;;;112288;1247;48976;-63
2023/01/16 07:47:28;;;;;;;;;38.00;32.25;24.80;42.00;;;;;;112293;1244;46268;-61
2023/01/16 07:49:56;;;;;;;;;38.50;32.00;24.80;41.80;;;;;;112283;1247;55934;-60
2023/01/16 07:52:23;;;;;;;;;40.50;32.50;24.90;41.80;;;;;;112260;1244;57075;-60
2023/01/16 07:54:50;;;;;;;;;42.25;33.75;24.90;41.60;;;;;;112248;1247;49476;-60
2023/01/16 07:57:17;;;;;;;;;38.25;31.25;24.90;41.70;;;;;;112280;1248;48950;-62
2023/01/16 07:59:44;;;;;;;;;43.00;33.25;24.90;41.60;;;;;;112222;1247;45229;-61
2023/01/16 08:02:12;;;;;;;;;35.50;30.25;25.00;41.60;;;;;;112237;1248;56755;-63
2023/01/16 08:04:38;;;;;;;;;40.67;32.67;25.00;41.50;;;;;;112222;1249;55323;-64
2023/01/16 08:07:05;;;;;;;;;36.75;31.00;25.00;41.50;;;;;;112199;1248;49475;-64
2023/01/16 08:09:32;;;;;;;;;37.25;32.25;25.00;41.30;;;;;;112176;1248;49467;-63
2023/01/16 08:11:59;;;;;;;;;40.75;33.25;25.00;41.20;;;;;;112174;1248;45318;-63
2023/01/16 08:14:26;;;;;;;;;47.00;35.00;25.00;41.10;;;;;;112270;1247;56027;-63
2023/01/16 08:16:53;;;;;;;;;41.00;34.00;24.90;41.00;;;;;;112307;1247;56415;-63
2023/01/16 08:19:20;;;;;;;;;36.00;31.00;24.90;41.00;;;;;;112321;1244;49159;-62
2023/01/16 08:21:47;;;;;;;;;37.50;32.00;24.90;41.00;;;;;;112266;1247;49777;-64
2023/01/16 08:24:14;;;;;;;;;42.25;36.75;24.90;40.80;;;;;;112324;1244;46388;-63
2023/01/16 08:26:42;;;;;;;;;51.00;36.00;24.90;39.90;;;;;;112294;1247;56275;-64
2023/01/16 08:29:10;;;;;;;;;39.67;34.00;24.80;40.00;;;;;;112301;1247;56822;-64
2023/01/16 08:31:37;;;;;;;;;41.75;33.75;24.80;39.70;;;;;;112277;1247;49899;-63
2023/01/16 08:34:04;;;;;;;;;45.33;35.33;24.70;39.60;;;;;;112296;1244;49612;-63
2023/01/16 08:36:31;;;;;;;;;43.00;36.75;24.70;39.50;;;;;;112297;1247;45531;-60
2023/01/16 08:38:58;;;;;;;;;43.25;36.25;24.60;39.20;;;;;;112333;1247;56736;-60
2023/01/16 08:52:36;;;;;;;;;45.00;36.25;24.50;39.00;;;;;;112238;1244;56405;-61
2023/01/16 08:55:05;;;;;;;;;41.67;35.67;24.40;38.80;;;;;;112356;1247;55691;-61
2023/01/16 08:57:33;;;;;;;;;47.00;36.00;24.40;38.60;;;;;;112284;1244;49580;-61
2023/01/16 09:00:00;;;;;;;;;45.75;36.75;24.40;38.40;;;;;;112284;1247;49659;-62
2023/01/16 09:02:27;;;;;;;;;46.75;36.25;24.40;38.40;;;;;;112311;1244;45662;-62
2023/01/16 09:04:54;;;;;;;;;48.00;39.00;24.40;38.30;;;;;;112301;1247;56335;-62
2023/01/16 09:07:22;;;;;;;;;47.67;38.33;24.30;38.20;;;;;;112315;1247;56746;-63
2023/01/16 09:09:49;;;;;;;;;43.75;36.75;24.30;38.10;;;;;;112307;1244;49201;-64
2023/01/16 09:15:04;;;;;;;;;44.67;36.00;24.20;38.20;;;;;;112307;1247;45913;-64
2023/01/16 09:17:31;;;;;;;;;47.67;37.33;24.20;38.50;;;;;;112343;1247;55709;-62
2023/01/16 09:19:58;;;;;;;;;40.25;33.50;24.30;39.00;;;;;;112269;1247;56053;-63
2023/01/16 09:22:28;;;;;;;;;37.67;32.67;24.30;39.00;;;;;;112280;1244;49117;-61
2023/01/16 09:24:55;;;;;;;;;39.25;33.00;24.30;39.10;;;;;;112266;1247;48766;-61
2023/01/16 09:27:24;;;;;;;;;46.00;36.00;24.40;39.20;;;;;;112340;1247;45252;-61
2023/01/16 09:29:51;;;;;;;;;44.00;35.50;24.40;39.20;;;;;;112328;1247;55932;-61
2023/01/16 09:32:19;;;;;;;;;35.67;31.67;24.40;39.20;;;;;;112318;1247;55365;-64
2023/01/16 09:34:46;;;;;;;;;33.00;30.00;24.50;39.30;;;;;;112299;1247;50538;-63
2023/01/16 09:37:14;;;;;;;;;41.00;33.00;24.50;39.20;;;;;;112326;1247;49650;-63
2023/01/16 09:39:41;;;;;;;;;38.00;32.33;24.60;39.30;;;;;;112325;1244;45530;-64
2023/01/16 09:45:04;;;;;;;;;40.00;32.50;24.60;39.30;;;;;;112307;1247;56395;-64
2023/01/16 09:47:32;;;;;;;;;32.33;29.00;24.60;39.30;;;;;;112336;1247;49807;-63
2023/01/16 09:50:13;;;;;;;;;38.75;32.00;24.60;38.80;;;;;;112290;1247;50228;-63
2023/01/16 09:58:35;;;;;;;;;35.50;32.50;24.70;39.20;;;;;;112194;1247;55764;-63
2023/01/16 10:01:23;;;;;;;;;34.00;29.75;24.80;39.20;;;;;;112230;1247;49751;-62
2023/01/16 10:04:09;;;;;;;;;35.25;30.25;24.80;39.10;;;;;;112306;1247;49408;-63
2023/01/16 10:06:44;;;;;;;;;30.50;28.75;24.80;39.00;;;;;;112325;1243;46465;-64
2023/01/16 10:09:30;;;;;;;;;36.75;30.75;24.80;39.00;;;;;;112323;1247;55875;-64
2023/01/16 10:11:58;;;;;;;;;43.33;34.33;24.80;39.00;;;;;;112185;1247;55478;-64
2023/01/16 10:14:34;;;;;;;;;37.50;31.25;24.80;38.80;;;;;;112296;1247;50009;-63
2023/01/16 10:17:30;;;;;;;;;34.67;30.00;24.80;38.70;;;;;;112294;1247;48934;-63
2023/01/16 10:20:28;;;;;;;;;36.33;32.67;24.70;38.50;;;;;;112309;1243;45982;-63
2023/01/16 10:23:37;;;;;;;;;39.50;31.00;24.70;38.60;;;;;;112332;1247;56439;-63
2023/01/16 10:26:08;;;;;;;;;44.25;34.00;24.70;38.40;;;;;;112199;1247;55437;-64
2023/01/16 10:28:35;;;;;;;;;36.00;31.00;24.60;38.30;;;;;;112302;1247;49878;-63
2023/01/16 10:31:32;;;;;;;;;36.50;32.50;24.60;38.20;;;;;;112309;1243;49152;-63
2023/01/16 10:34:08;;;;;;;;;37.50;31.75;24.60;38.20;;;;;;112305;1245;46084;-63
2023/01/16 10:36:41;;;;;;;;;36.00;31.00;24.60;38.10;;;;;;112288;1247;56861;-62
2023/01/16 10:39:11;;;;;;;;;38.50;32.50;24.60;38.10;;;;;;112335;1244;55467;-63
2023/01/16 10:50:19;;;;;;;;;40.00;34.00;24.50;38.00;;;;;;112288;1247;56271;-63
2023/01/16 10:52:47;;;;;;;;;40.50;35.50;24.40;37.90;;;;;;112288;1247;56065;-63
2023/01/16 10:55:15;;;;;;;;;39.75;34.25;24.40;37.90;;;;;;112269;1247;49546;-64
2023/01/16 10:57:50;;;;;;;;;45.67;36.00;24.40;37.90;;;;;;112231;1248;49625;-63
2023/01/16 11:00:38;;;;;;;;;40.00;33.00;24.40;37.90;;;;;;112306;1247;45540;-64
2023/01/16 11:03:13;;;;;;;;;41.00;32.50;24.40;37.90;;;;;;112332;1247;56234;-63
2023/01/16 11:05:40;;;;;;;;;41.67;33.33;24.40;38.00;;;;;;112337;1247;57100;-61
2023/01/16 11:08:11;;;;;;;;;39.25;34.25;24.40;38.10;;;;;;112328;1244;49451;-62
2023/01/16 11:10:41;;;;;;;;;36.25;32.00;24.40;38.00;;;;;;112292;1246;49440;-61
2023/01/16 11:18:46;;;;;;;;;41.00;33.67;24.40;37.80;;;;;;112309;1247;55853;-62
2023/01/16 11:21:13;;;;;;;;;33.50;28.00;24.30;37.70;;;;;;112306;1247;48982;-62
2023/01/16 11:23:43;;;;;;;;;36.00;29.75;24.30;37.90;;;;;;112288;1247;49144;-62
2023/01/16 11:26:11;;;;;;;;;41.67;31.33;24.30;38.20;;;;;;112267;1247;45735;-62
2023/01/16 11:28:38;;;;;;;;;38.00;32.33;24.30;38.10;;;;;;112189;1247;57882;-62
2023/01/16 11:31:18;;;;;;;;;36.00;31.33;24.30;38.10;;;;;;112179;1247;55318;-65
2023/01/16 11:33:49;;;;;;;;;34.00;30.50;24.30;38.00;;;;;;112292;1247;49325;-65
2023/01/16 11:36:18;;;;;;;;;33.00;30.00;24.30;38.20;;;;;;112316;1247;49716;-67
2023/01/16 11:38:46;;;;;;;;;42.50;33.00;24.30;38.00;;;;;;112208;1247;45914;-64
2023/01/16 11:41:18;;;;;;;;;34.33;30.67;24.20;37.80;;;;;;112245;1244;56700;-61
2023/01/16 11:46:38;;;;;;;;;35.00;28.67;24.30;38.50;;;;;;112295;1244;49692;-62
2023/01/16 11:49:23;;;;;;;;;29.00;27.50;24.30;38.60;;;;;;112317;1245;50577;-61
2023/01/16 11:51:54;;;;;;;;;25.00;24.00;24.30;38.70;;;;;;112318;1247;45996;-60
2023/01/16 11:54:26;;;;;;;;;31.33;27.33;24.40;38.90;;;;;;112284;1247;56486;-60
2023/01/16 11:57:05;;;;;;;;;29.67;26.00;24.40;38.70;;;;;;112302;1247;56182;-65
2023/01/16 11:59:42;;;;;;;;;31.50;28.50;24.50;38.70;;;;;;112322;1247;49118;-63
2023/01/16 12:02:37;;;;;;;;;31.33;27.67;24.50;38.60;;;;;;112302;1247;49989;-63
2023/01/16 12:08:35;;;;;;;;;30.50;27.00;24.60;39.10;;;;;;112312;1247;56235;-63
2023/01/16 12:11:11;;;;;;;;;26.33;23.67;24.60;38.00;;;;;;112274;1247;55969;-65
2023/01/16 12:16:56;;;;;;;;;25.25;24.00;24.70;39.30;;;;;;112313;1244;49750;-62
2023/01/16 12:19:42;;;;;;;;;26.33;23.00;24.80;39.40;;;;;;112331;1245;44568;-62
2023/01/16 12:22:40;;;;;;;;;26.50;24.00;24.80;39.40;;;;;;111711;1244;798568;-61
2023/01/16 12:25:39;;;;;;;;;26.00;23.00;24.90;39.50;;;;;;112321;1243;56881;-61
2023/01/16 12:28:33;;;;;;;;;29.00;25.00;24.90;39.60;;;;;;112333;1243;49421;-62
2023/01/16 12:31:27;;;;;;;;;24.50;23.50;25.00;39.70;;;;;;112344;1247;49398;-63
2023/01/16 12:33:58;;;;;;;;;25.50;22.75;25.00;39.70;;;;;;112203;1248;46506;-64
2023/01/16 12:36:34;;;;;;;;;23.50;22.00;25.00;39.70;;;;;;112164;1249;55862;-67
2023/01/16 12:39:46;;;;;;;;;25.00;23.00;25.00;39.70;;;;;;112194;1248;56840;-63
2023/01/16 12:45:02;;;;;;;;;24.50;22.00;25.10;39.80;;;;;;112100;1247;48884;-63
2023/01/16 12:47:35;;;;;;;;;27.00;24.50;25.10;39.80;;;;;;112139;1248;45706;-63
2023/01/16 12:50:36;;;;;;;;;28.00;23.25;25.10;39.80;;;;;;112245;1248;56104;-60
2023/01/16 12:53:18;;;;;;;;;24.75;23.75;25.10;39.80;;;;;;112280;1244;56383;-65
2023/01/16 12:55:59;;;;;;;;;26.25;24.50;25.20;40.10;;;;;;112281;1247;49597;-65
2023/01/16 12:58:30;;;;;;;;;27.33;25.67;25.10;39.80;;;;;;112316;1247;49257;-68
2023/01/16 13:01:34;;;;;;;;;23.00;21.50;25.20;39.80;;;;;;112324;1244;45073;-66
2023/01/16 13:04:17;;;;;;;;;32.00;25.00;25.10;39.60;;;;;;112046;1251;56078;-66
2023/01/16 13:06:53;;;;;;;;;25.67;24.00;25.10;39.60;;;;;;112172;1248;55787;-64
2023/01/16 13:09:36;;;;;;;;;26.00;24.33;25.10;39.50;;;;;;112213;1248;49314;-65
2023/01/16 13:14:56;;;;;;;;;28.75;24.50;25.10;39.80;;;;;;112204;1249;45918;-63
2023/01/16 13:17:27;;;;;;;;;24.50;22.25;25.10;39.30;;;;;;112127;1250;57333;-65
2023/01/16 13:19:54;;;;;;;;;26.50;23.50;25.10;39.50;;;;;;112213;1248;56151;-63
2023/01/16 13:22:26;;;;;;;;;27.33;26.00;25.00;39.50;;;;;;112213;1244;49811;-61
2023/01/16 13:25:23;;;;;;;;;34.33;29.00;25.00;36.30;;;;;;112214;1244;48817;-63
2023/01/16 13:28:34;;;;;;;;;31.75;25.00;24.70;33.60;;;;;;112206;1245;45396;-61
2023/01/16 13:31:05;;;;;;;;;30.25;26.75;24.50;35.50;;;;;;111976;1251;56316;-65
2023/01/16 13:33:35;;;;;;;;;29.25;24.00;24.50;36.70;;;;;;112211;1247;56231;-62
2023/01/16 13:36:27;;;;;;;;;24.50;21.25;24.50;37.10;;;;;;112240;1244;49671;-67
2023/01/16 13:39:12;;;;;;;;;29.00;26.50;24.40;37.40;;;;;;112241;1248;49747;-65
2023/01/16 13:41:39;;;;;;;;;30.00;24.50;24.50;37.50;;;;;;112260;1245;45334;-63
2023/01/16 13:47:04;;;;;;;;;26.25;25.00;24.50;37.70;;;;;;112209;1244;56583;-67
2023/01/16 13:49:31;;;;;;;;;25.50;23.00;24.50;37.80;;;;;;112263;1247;48869;-72